Time;durP1;ratioP1;P1;durP2;ratioP2;P2;SDS_P1;SDS_P2;PMS_P1;PMS_P2;Temp;Humidity;BMP_temperature;BMP_pressure;BME280_temperature;BME280_humidity;BME280_pressure;Samples;Min_cycle;Max_cycle;Signal;HPM_P1;HPM_P2
2022/04/17 00:02:17;;;;;;;12.25;7.57;;;4.80;99.90;;;;;;5089350;28;20036;-70
2022/04/17 00:04:42;;;;;;;11.75;7.00;;;4.70;99.90;;;;;;5083989;28;20129;-70
2022/04/17 00:07:08;;;;;;;13.20;8.02;;;4.70;99.90;;;;;;5072098;28;20613;-70
2022/04/17 00:09:33;;;;;;;13.43;8.20;;;4.70;99.90;;;;;;5085644;28;20039;-70
2022/04/17 00:12:01;;;;;;;12.25;8.27;;;4.70;99.90;;;;;;5075578;28;20044;-70
2022/04/17 00:14:27;;;;;;;13.80;8.63;;;4.70;99.90;;;;;;5092989;28;20044;-70
2022/04/17 00:16:55;;;;;;;12.70;8.65;;;4.70;99.90;;;;;;5087826;28;20047;-71
2022/04/17 00:19:20;;;;;;;14.85;8.57;;;4.70;99.90;;;;;;5084487;28;20508;-70
2022/04/17 00:21:47;;;;;;;13.80;9.15;;;4.70;99.90;;;;;;5092022;28;20032;-71
2022/04/17 00:24:13;;;;;;;14.25;8.82;;;4.70;99.90;;;;;;5091803;28;20043;-71
2022/04/17 00:26:39;;;;;;;14.60;8.70;;;4.70;99.90;;;;;;5091329;28;20047;-69
2022/04/17 00:29:05;;;;;;;15.02;9.25;;;4.70;99.90;;;;;;5092437;28;20040;-70
2022/04/17 00:31:30;;;;;;;16.17;9.32;;;4.70;99.90;;;;;;5092622;28;20422;-71
2022/04/17 00:33:56;;;;;;;14.30;9.05;;;4.70;99.90;;;;;;5091290;28;20457;-70
2022/04/17 00:36:21;;;;;;;15.15;9.07;;;4.70;99.90;;;;;;5092530;28;20048;-71
2022/04/17 00:38:47;;;;;;;15.30;9.27;;;4.70;99.90;;;;;;5092019;28;20402;-71
2022/04/17 00:41:12;;;;;;;15.20;9.38;;;4.60;99.90;;;;;;5092403;28;20051;-70
2022/04/17 00:43:47;;;;;;;14.15;9.07;;;4.60;99.90;;;;;;5092637;28;20126;-70
2022/04/17 00:46:13;;;;;;;14.05;9.23;;;4.60;99.90;;;;;;5092533;28;20075;-70
2022/04/17 00:48:39;;;;;;;16.48;9.52;;;4.60;99.90;;;;;;5088910;28;20110;-70
2022/04/17 00:51:05;;;;;;;14.73;9.02;;;4.60;99.90;;;;;;5090384;28;20044;-70
2022/04/17 00:53:31;;;;;;;14.32;9.20;;;4.60;99.90;;;;;;5091009;28;20040;-70
2022/04/17 00:55:57;;;;;;;15.70;9.07;;;4.50;99.90;;;;;;5091974;28;20039;-70
2022/04/17 00:58:24;;;;;;;14.57;9.07;;;4.50;99.90;;;;;;5092082;28;20109;-70
2022/04/17 01:00:50;;;;;;;14.00;8.73;;;4.50;99.90;;;;;;5091353;28;20094;-70
2022/04/17 01:03:17;;;;;;;13.98;8.45;;;4.50;99.90;;;;;;5090391;28;20047;-70
2022/04/17 01:05:44;;;;;;;14.85;8.68;;;4.50;99.90;;;;;;5076829;28;20051;-70
2022/04/17 01:08:10;;;;;;;13.82;9.00;;;4.40;99.90;;;;;;5085334;28;20471;-70
2022/04/17 01:10:39;;;;;;;13.70;8.70;;;4.40;99.90;;;;;;5087070;28;20043;-70
2022/04/17 01:13:09;;;;;;;13.85;8.43;;;4.40;99.90;;;;;;5090179;28;20040;-70
2022/04/17 01:15:36;;;;;;;12.45;8.48;;;4.40;99.90;;;;;;5091376;28;20197;-70
2022/04/17 01:18:03;;;;;;;11.55;8.40;;;4.40;99.90;;;;;;5091630;28;20039;-70
2022/04/17 01:20:28;;;;;;;11.98;8.43;;;4.40;99.90;;;;;;5091565;28;20080;-70
2022/04/17 01:26:56;;;;;;;13.35;8.73;;;4.40;99.90;;;;;;5091426;28;20044;-70
2022/04/17 01:28:26;;;;;;;13.75;8.55;;;4.40;99.90;;;;;;5071208;28;20109;-70
2022/04/17 01:30:53;;;;;;;12.30;8.35;;;4.30;99.90;;;;;;5070702;28;20044;-70
2022/04/17 01:33:19;;;;;;;13.82;8.50;;;4.30;99.90;;;;;;5090083;28;20040;-70
2022/04/17 01:35:44;;;;;;;13.82;8.73;;;4.30;99.90;;;;;;5088721;28;20044;-70
2022/04/17 01:38:10;;;;;;;11.48;8.48;;;4.30;99.90;;;;;;5088654;28;20032;-70
2022/04/17 01:40:35;;;;;;;14.68;9.02;;;4.30;99.90;;;;;;5081551;28;20281;-70
2022/04/17 01:43:01;;;;;;;11.90;8.80;;;4.20;99.90;;;;;;5088885;28;20491;-70
2022/04/17 01:45:27;;;;;;;12.73;8.55;;;4.20;99.90;;;;;;5089902;28;20055;-70
2022/04/17 01:47:54;;;;;;;13.18;8.05;;;4.20;99.90;;;;;;5087360;28;20047;-70
2022/04/17 01:50:19;;;;;;;15.05;9.10;;;4.20;99.90;;;;;;5089122;28;20043;-70
2022/04/17 01:52:45;;;;;;;13.27;8.25;;;4.20;99.90;;;;;;5089066;28;20526;-70
2022/04/17 01:55:11;;;;;;;14.13;8.75;;;4.10;99.90;;;;;;5089397;28;20036;-71
2022/04/17 01:57:36;;;;;;;13.10;8.45;;;4.10;99.90;;;;;;5086902;28;20612;-70
2022/04/17 02:00:03;;;;;;;14.95;8.25;;;4.00;99.90;;;;;;5089239;28;20501;-71
2022/04/17 02:02:28;;;;;;;13.02;8.15;;;4.00;99.90;;;;;;5088104;28;20510;-71
2022/04/17 02:04:54;;;;;;;13.77;8.40;;;4.00;99.90;;;;;;5089629;28;20044;-70
2022/04/17 02:07:19;;;;;;;12.65;8.23;;;4.00;99.90;;;;;;5089201;28;20048;-70
2022/04/17 02:09:45;;;;;;;15.23;8.75;;;4.00;99.90;;;;;;5088557;28;20086;-70
2022/04/17 02:12:12;;;;;;;12.45;8.70;;;3.90;99.90;;;;;;5089690;28;20526;-70
2022/04/17 02:14:38;;;;;;;16.50;8.77;;;3.90;99.90;;;;;;5088866;28;20040;-70
2022/04/17 02:17:03;;;;;;;16.10;8.50;;;3.90;99.90;;;;;;5085461;28;20093;-71
2022/04/17 02:19:29;;;;;;;12.70;8.20;;;3.80;99.90;;;;;;5088609;28;20032;-70
2022/04/17 02:21:55;;;;;;;11.50;8.38;;;3.80;99.90;;;;;;5088907;28;20035;-71
2022/04/17 02:24:20;;;;;;;12.88;8.85;;;3.80;99.90;;;;;;5088819;28;20028;-70
2022/04/17 02:26:46;;;;;;;13.98;8.52;;;3.80;99.90;;;;;;5088951;28;20046;-70
2022/04/17 02:29:11;;;;;;;13.82;8.88;;;3.70;99.90;;;;;;5088484;28;20433;-70
2022/04/17 02:31:37;;;;;;;14.98;9.00;;;3.70;99.90;;;;;;5085754;28;20036;-70
2022/04/17 02:34:02;;;;;;;13.82;8.95;;;3.70;99.90;;;;;;5089019;28;20040;-70
2022/04/17 02:36:28;;;;;;;13.07;8.65;;;3.70;99.90;;;;;;5088789;28;20072;-70
2022/04/17 02:38:55;;;;;;;14.93;8.98;;;3.70;99.90;;;;;;5087925;28;20577;-70
2022/04/17 02:41:21;;;;;;;16.08;9.25;;;3.60;99.90;;;;;;5088960;28;20452;-70
2022/04/17 02:43:46;;;;;;;12.95;8.55;;;3.60;99.90;;;;;;5085915;28;20044;-70
2022/04/17 02:46:12;;;;;;;13.63;8.75;;;3.60;99.90;;;;;;5082193;28;20100;-70
2022/04/17 02:48:37;;;;;;;13.57;8.70;;;3.60;99.90;;;;;;5087414;28;20131;-70
2022/04/17 02:51:03;;;;;;;14.93;8.57;;;3.60;99.90;;;;;;5088994;28;20471;-70
2022/04/17 02:53:30;;;;;;;14.13;9.10;;;3.60;99.90;;;;;;5087522;28;20048;-70
2022/04/17 02:55:56;;;;;;;13.98;8.73;;;3.50;99.90;;;;;;5089521;28;20051;-70
2022/04/17 02:58:21;;;;;;;13.30;8.38;;;3.50;99.90;;;;;;5089229;28;20032;-71
2022/04/17 03:06:15;;;;;;;14.90;9.43;;;3.40;99.90;;;;;;5086212;28;20170;-70
2022/04/17 03:08:42;;;;;;;14.32;8.57;;;3.50;99.90;;;;;;5067553;28;20130;-70
2022/04/17 03:11:08;;;;;;;16.30;9.50;;;3.40;99.90;;;;;;5089390;28;20475;-70
2022/04/17 03:13:34;;;;;;;15.60;9.20;;;3.50;99.90;;;;;;5088654;28;20043;-70
2022/04/17 03:16:00;;;;;;;16.33;9.20;;;3.50;99.90;;;;;;5088823;28;20089;-70
2022/04/17 03:18:26;;;;;;;15.55;8.82;;;3.40;99.90;;;;;;5088882;28;20032;-70
2022/04/17 03:20:51;;;;;;;15.45;9.38;;;3.40;99.90;;;;;;5088059;28;20053;-69
2022/04/17 03:23:17;;;;;;;14.85;8.60;;;3.40;99.90;;;;;;5088816;28;20115;-70
2022/04/17 03:25:43;;;;;;;15.02;9.40;;;3.40;99.90;;;;;;5067620;28;20054;-69
2022/04/17 03:28:09;;;;;;;13.77;9.15;;;3.30;99.90;;;;;;5088639;28;20387;-70
2022/04/17 03:30:34;;;;;;;15.10;9.45;;;3.30;99.90;;;;;;5087650;28;20043;-70
2022/04/17 03:33:01;;;;;;;15.35;9.82;;;3.30;99.90;;;;;;5088374;28;20466;-69
2022/04/17 03:35:26;;;;;;;15.18;9.55;;;3.30;99.90;;;;;;5087857;28;20039;-69
2022/04/17 03:37:53;;;;;;;15.48;9.38;;;3.30;99.90;;;;;;5088698;28;20220;-69
2022/04/17 03:40:19;;;;;;;15.55;9.27;;;3.30;99.90;;;;;;5085338;28;20127;-69
2022/04/17 03:42:45;;;;;;;15.40;9.30;;;3.30;99.90;;;;;;5081682;28;20105;-69
2022/04/17 03:45:14;;;;;;;14.35;9.25;;;3.30;99.90;;;;;;5088449;28;20039;-69
2022/04/17 03:47:40;;;;;;;18.17;9.45;;;3.30;99.90;;;;;;5071043;28;20414;-69
2022/04/17 03:50:07;;;;;;;12.75;9.32;;;3.30;99.90;;;;;;5087236;28;20044;-70
2022/04/17 03:52:47;;;;;;;17.40;8.80;;;3.30;99.90;;;;;;5087906;28;20040;-69
2022/04/17 03:55:13;;;;;;;14.82;9.23;;;3.20;99.90;;;;;;5069459;28;20070;-69
2022/04/17 03:57:39;;;;;;;14.52;9.43;;;3.20;99.90;;;;;;5084469;28;20071;-69
2022/04/17 04:00:07;;;;;;;16.75;9.73;;;3.20;99.90;;;;;;5087842;28;20495;-69
2022/04/17 04:02:33;;;;;;;14.65;9.65;;;3.20;99.90;;;;;;5086119;28;20569;-69
2022/04/17 04:04:58;;;;;;;16.40;9.73;;;3.20;99.90;;;;;;5088492;28;20051;-69
2022/04/17 04:07:24;;;;;;;13.63;8.88;;;3.20;99.90;;;;;;5087880;28;20402;-69
2022/04/17 04:09:51;;;;;;;16.52;9.77;;;3.20;99.90;;;;;;5070509;28;20077;-70
2022/04/17 04:12:17;;;;;;;16.00;10.18;;;3.10;99.90;;;;;;5085343;28;20047;-69
2022/04/17 04:14:43;;;;;;;16.60;10.05;;;3.10;99.90;;;;;;5088051;28;20041;-70
2022/04/17 04:17:09;;;;;;;15.57;9.43;;;3.10;99.90;;;;;;5086703;28;20553;-70
2022/04/17 04:19:35;;;;;;;17.83;10.07;;;3.10;99.90;;;;;;5083974;28;20033;-70
2022/04/17 04:22:00;;;;;;;14.38;9.85;;;3.10;99.90;;;;;;5064673;28;20184;-70
2022/04/17 04:24:26;;;;;;;16.63;10.68;;;3.10;99.90;;;;;;5082777;28;20032;-69
2022/04/17 04:29:37;;;;;;;15.88;9.35;;;3.10;99.90;;;;;;5084388;28;20051;-70
2022/04/17 04:32:04;;;;;;;16.40;9.73;;;3.00;99.90;;;;;;5085381;28;20594;-69
2022/04/17 04:34:30;;;;;;;15.50;9.75;;;3.00;99.90;;;;;;5083724;28;20528;-69
2022/04/17 04:36:55;;;;;;;15.35;9.60;;;3.00;99.90;;;;;;5087782;28;20036;-69
2022/04/17 04:39:21;;;;;;;15.48;9.82;;;3.00;99.90;;;;;;5087220;28;20395;-70
2022/04/17 04:41:46;;;;;;;16.23;9.65;;;3.00;99.90;;;;;;5086759;28;20037;-69
2022/04/17 04:44:12;;;;;;;15.52;9.82;;;3.00;99.90;;;;;;5087930;28;20123;-69
2022/04/17 04:46:38;;;;;;;15.32;9.90;;;3.00;99.90;;;;;;5089907;28;20051;-69
2022/04/17 04:51:49;;;;;;;16.67;9.23;;;3.00;99.90;;;;;;5089871;28;20051;-70
2022/04/17 04:54:15;;;;;;;15.93;9.68;;;3.00;99.90;;;;;;5091543;28;20082;-69
2022/04/17 04:56:40;;;;;;;15.52;10.07;;;3.10;99.90;;;;;;5090853;28;20081;-69
2022/04/17 04:59:06;;;;;;;16.85;9.48;;;3.10;99.90;;;;;;5090890;28;20526;-69
2022/04/17 05:01:31;;;;;;;14.98;9.73;;;3.10;99.90;;;;;;5091501;28;20120;-69
2022/04/17 05:03:57;;;;;;;16.90;9.93;;;3.10;99.90;;;;;;5088581;28;20122;-69
2022/04/17 05:06:22;;;;;;;15.68;10.18;;;3.20;99.90;;;;;;5091440;28;20105;-69
2022/04/17 05:08:48;;;;;;;16.23;10.05;;;3.20;99.90;;;;;;5085109;28;20036;-69
2022/04/17 05:11:13;;;;;;;15.80;9.65;;;3.30;99.90;;;;;;5090988;28;20101;-70
2022/04/17 05:13:39;;;;;;;18.55;10.07;;;3.30;99.90;;;;;;5090625;28;20137;-69
2022/04/17 05:16:06;;;;;;;13.73;9.20;;;3.30;99.90;;;;;;5089946;28;20036;-70
2022/04/17 05:18:32;;;;;;;15.18;9.57;;;3.30;99.90;;;;;;5108098;28;20440;-70
2022/04/17 05:20:57;;;;;;;17.00;9.63;;;3.40;99.90;;;;;;5087931;28;20391;-69
2022/04/17 05:23:27;;;;;;;16.63;10.35;;;3.40;99.90;;;;;;5090775;28;20035;-70
2022/04/17 05:25:56;;;;;;;15.63;9.73;;;3.50;99.90;;;;;;5089804;28;20562;-69
2022/04/17 05:28:22;;;;;;;15.48;9.50;;;3.60;99.90;;;;;;5086227;28;20036;-69
2022/04/17 05:30:48;;;;;;;14.85;9.23;;;3.60;99.90;;;;;;5085928;28;20144;-70
2022/04/17 05:33:16;;;;;;;15.90;9.95;;;3.60;99.90;;;;;;5083106;28;20115;-70
2022/04/17 05:35:42;;;;;;;16.73;9.88;;;3.70;99.90;;;;;;5085244;28;20058;-70
2022/04/17 05:38:08;;;;;;;15.75;9.98;;;3.80;99.90;;;;;;5086403;28;20395;-70
2022/04/17 05:40:42;;;;;;;15.98;9.88;;;3.80;99.90;;;;;;5085045;28;20032;-70
2022/04/17 05:43:08;;;;;;;18.63;10.52;;;3.90;99.90;;;;;;5081955;28;20495;-70
2022/04/17 05:45:34;;;;;;;17.88;9.93;;;3.90;99.90;;;;;;5081402;28;20036;-70
2022/04/17 05:48:00;;;;;;;15.80;9.77;;;4.00;99.90;;;;;;5084413;28;20046;-70
2022/04/17 05:50:27;;;;;;;17.08;10.48;;;4.10;99.90;;;;;;5084089;28;20047;-70
2022/04/17 05:52:53;;;;;;;15.63;9.45;;;4.20;99.90;;;;;;5084210;28;20052;-70
2022/04/17 05:55:19;;;;;;;16.33;10.20;;;4.20;99.90;;;;;;5084502;28;20032;-69
2022/04/17 05:57:44;;;;;;;15.25;9.85;;;4.30;99.90;;;;;;5084858;28;20043;-70
2022/04/17 06:00:11;;;;;;;15.60;10.40;;;4.40;99.90;;;;;;5085930;28;20509;-70
2022/04/17 06:02:38;;;;;;;17.10;10.00;;;4.50;99.90;;;;;;5082615;28;20047;-70
2022/04/17 06:05:05;;;;;;;14.75;9.60;;;4.60;99.90;;;;;;5085659;28;20040;-70
2022/04/17 06:07:32;;;;;;;15.07;9.93;;;4.60;99.90;;;;;;5086977;28;20047;-70
2022/04/17 06:10:02;;;;;;;17.10;10.23;;;4.70;99.90;;;;;;5084962;28;20040;-70
2022/04/17 06:12:28;;;;;;;17.73;10.32;;;4.80;99.90;;;;;;5085446;28;20065;-69
2022/04/17 06:14:54;;;;;;;16.88;10.77;;;5.00;99.90;;;;;;5086093;28;20035;-70
2022/04/17 06:17:19;;;;;;;17.88;10.50;;;5.10;99.90;;;;;;5085563;28;20058;-70
2022/04/17 06:19:45;;;;;;;14.70;9.73;;;5.20;99.90;;;;;;5084040;28;20044;-70
2022/04/17 06:22:11;;;;;;;18.98;11.18;;;5.30;99.90;;;;;;5081499;28;20568;-70
2022/04/17 06:24:37;;;;;;;16.90;10.90;;;5.40;99.90;;;;;;5067842;28;20040;-71
2022/04/17 06:27:02;;;;;;;18.02;10.77;;;5.50;99.90;;;;;;5085488;28;20040;-70
2022/04/17 06:29:28;;;;;;;17.80;10.65;;;5.70;99.90;;;;;;5084257;28;20036;-70
2022/04/17 06:31:53;;;;;;;16.95;10.63;;;5.80;99.90;;;;;;5084493;28;20491;-70
2022/04/17 06:34:19;;;;;;;17.13;10.30;;;6.00;99.90;;;;;;5083418;28;20040;-71
2022/04/17 06:36:44;;;;;;;16.13;10.60;;;6.10;99.90;;;;;;5084702;28;20059;-70
2022/04/17 06:39:10;;;;;;;15.50;10.38;;;6.20;99.90;;;;;;5083479;28;20387;-70
2022/04/17 06:41:36;;;;;;;16.85;10.32;;;6.30;99.90;;;;;;5084317;28;20089;-71
2022/04/17 06:44:02;;;;;;;18.08;10.40;;;6.40;99.90;;;;;;5085493;28;20044;-70
2022/04/17 06:46:27;;;;;;;16.80;10.38;;;6.60;99.90;;;;;;5084115;28;20402;-71
2022/04/17 06:48:53;;;;;;;17.70;10.93;;;6.70;99.90;;;;;;5085312;28;20047;-70
2022/04/17 06:51:23;;;;;;;18.75;11.15;;;6.80;99.90;;;;;;5084776;28;20402;-70
2022/04/17 06:53:49;;;;;;;20.23;11.05;;;7.00;99.90;;;;;;5082885;28;20583;-70
2022/04/17 06:56:18;;;;;;;18.05;10.40;;;7.10;99.90;;;;;;5084423;28;20040;-70
2022/04/17 06:58:47;;;;;;;15.75;11.00;;;7.30;99.90;;;;;;5084745;28;20044;-69
2022/04/17 07:01:17;;;;;;;17.45;10.40;;;7.40;99.90;;;;;;5082958;28;20039;-70
2022/04/17 07:03:43;;;;;;;15.13;9.90;;;7.50;99.90;;;;;;5063131;28;20040;-71
2022/04/17 07:06:09;;;;;;;16.58;10.25;;;7.60;99.90;;;;;;5084136;28;20394;-71
2022/04/17 07:08:34;;;;;;;16.10;10.85;;;7.70;99.90;;;;;;5065196;28;20040;-71
2022/04/17 07:11:00;;;;;;;15.10;10.45;;;7.90;99.90;;;;;;5084849;28;20048;-71
2022/04/17 07:13:26;;;;;;;17.77;11.32;;;8.00;99.90;;;;;;5082111;28;20126;-71
2022/04/17 07:15:51;;;;;;;20.38;11.45;;;8.10;99.90;;;;;;5081662;28;20486;-71
2022/04/17 07:18:17;;;;;;;17.42;10.77;;;8.30;99.90;;;;;;5085617;28;20395;-70
2022/04/17 07:20:43;;;;;;;20.42;10.82;;;8.40;99.90;;;;;;5084253;28;20399;-70
2022/04/17 07:23:08;;;;;;;17.35;10.98;;;8.50;99.90;;;;;;5085152;28;20048;-71
2022/04/17 07:25:34;;;;;;;22.05;10.95;;;8.60;99.90;;;;;;5087969;28;20039;-71
2022/04/17 07:28:00;;;;;;;17.58;10.35;;;8.70;99.90;;;;;;5089257;28;20032;-71
2022/04/17 07:30:28;;;;;;;16.92;10.48;;;8.80;99.90;;;;;;5088636;28;20105;-70
2022/04/17 07:32:55;;;;;;;17.35;10.55;;;8.90;99.90;;;;;;5089184;28;20040;-71
2022/04/17 07:35:22;;;;;;;16.95;10.52;;;9.10;99.90;;;;;;5076488;28;20492;-71
2022/04/17 07:37:53;;;;;;;17.52;10.52;;;9.20;99.90;;;;;;5083513;28;20032;-71
2022/04/17 07:40:21;;;;;;;15.93;10.60;;;9.30;99.90;;;;;;5082246;28;20075;-72
2022/04/17 07:42:49;;;;;;;17.30;10.50;;;9.50;99.90;;;;;;5086112;28;20050;-70
2022/04/17 07:45:15;;;;;;;18.08;10.25;;;9.50;99.90;;;;;;5072104;28;20126;-71
2022/04/17 07:47:41;;;;;;;16.00;10.13;;;9.70;99.90;;;;;;5088722;28;20447;-71
2022/04/17 07:50:08;;;;;;;18.45;11.02;;;9.80;99.90;;;;;;5067776;28;20526;-74
2022/04/17 07:52:35;;;;;;;16.70;10.75;;;9.90;99.90;;;;;;5075156;28;20075;-71
2022/04/17 07:55:02;;;;;;;16.13;10.30;;;10.00;99.90;;;;;;5089531;28;20083;-71
2022/04/17 07:57:28;;;;;;;16.15;9.82;;;10.10;99.90;;;;;;5076463;28;20154;-71
2022/04/17 07:59:55;;;;;;;17.20;10.38;;;10.20;99.90;;;;;;5068310;28;20063;-72
2022/04/17 08:02:28;;;;;;;17.70;9.77;;;10.30;99.90;;;;;;5069088;28;20053;-69
2022/04/17 08:04:55;;;;;;;15.57;9.68;;;10.40;99.90;;;;;;5076072;28;20040;-71
2022/04/17 08:07:23;;;;;;;18.10;9.90;;;10.50;99.90;;;;;;5088823;28;20131;-70
2022/04/17 08:09:50;;;;;;;14.93;9.50;;;10.60;99.90;;;;;;5085548;28;20079;-71
2022/04/17 08:12:15;;;;;;;16.92;10.25;;;10.60;99.90;;;;;;5057705;28;20036;-70
2022/04/17 08:14:41;;;;;;;18.30;10.57;;;10.70;99.90;;;;;;5089009;28;20111;-71
2022/04/17 08:17:06;;;;;;;16.58;9.60;;;10.70;99.90;;;;;;5089181;28;20490;-70
2022/04/17 08:19:32;;;;;;;16.70;9.65;;;10.80;99.90;;;;;;5087763;28;20036;-70
2022/04/17 08:22:02;;;;;;;16.58;10.27;;;10.90;99.90;;;;;;5090980;28;20483;-71
2022/04/17 08:24:30;;;;;;;17.45;10.43;;;11.00;99.90;;;;;;5093048;28;20067;-73
2022/04/17 08:26:57;;;;;;;15.90;9.93;;;11.10;99.90;;;;;;5092629;28;20155;-73
2022/04/17 08:29:23;;;;;;;15.90;9.98;;;11.20;99.90;;;;;;5079805;28;20036;-72
2022/04/17 08:31:48;;;;;;;16.35;10.00;;;11.30;99.90;;;;;;5065906;28;20056;-72
2022/04/17 08:34:14;;;;;;;16.90;10.45;;;11.40;99.90;;;;;;5094190;28;20070;-72
2022/04/17 08:36:39;;;;;;;16.88;9.80;;;11.50;99.90;;;;;;5091788;28;20066;-73
2022/04/17 08:39:05;;;;;;;15.25;9.25;;;11.60;99.90;;;;;;5092276;28;20031;-68
2022/04/17 08:41:33;;;;;;;17.65;9.52;;;11.70;99.90;;;;;;5092250;28;20032;-72
2022/04/17 08:43:58;;;;;;;17.60;9.77;;;11.80;99.90;;;;;;5087397;28;20038;-70
2022/04/17 08:46:24;;;;;;;15.70;9.25;;;11.80;99.90;;;;;;5092458;28;20036;-71
2022/04/17 08:48:51;;;;;;;13.82;9.13;;;11.90;99.90;;;;;;5082171;28;20131;-70
2022/04/17 08:51:18;;;;;;;15.63;9.18;;;12.00;99.90;;;;;;5076298;28;20040;-71
2022/04/17 08:53:45;;;;;;;15.90;9.05;;;12.00;99.90;;;;;;5091911;28;20040;-71
2022/04/17 08:56:10;;;;;;;13.43;8.43;;;12.10;99.90;;;;;;5092276;28;20040;-71
2022/04/17 08:58:36;;;;;;;15.52;8.80;;;12.30;99.90;;;;;;5082965;28;20036;-71
2022/04/17 09:01:02;;;;;;;15.07;8.85;;;12.30;99.90;;;;;;5071400;28;20037;-71
2022/04/17 09:03:29;;;;;;;13.65;8.50;;;12.40;99.90;;;;;;5071910;28;20040;-71
2022/04/17 09:05:54;;;;;;;15.13;7.93;;;12.50;99.90;;;;;;5072175;28;20050;-72
2022/04/17 09:08:23;;;;;;;12.70;8.23;;;12.60;99.90;;;;;;5071889;28;20048;-71
2022/04/17 09:10:57;;;;;;;15.57;8.52;;;12.70;96.90;;;;;;5088972;28;20601;-71
2022/04/17 09:13:33;;;;;;;15.32;8.45;;;12.70;99.90;;;;;;5091793;28;20043;-70
2022/04/17 09:16:01;;;;;;;12.80;8.15;;;12.80;99.90;;;;;;5091936;28;20148;-71
2022/04/17 09:18:28;;;;;;;13.95;8.43;;;12.90;99.90;;;;;;5090358;28;20043;-73
2022/04/17 09:20:54;;;;;;;14.82;8.57;;;13.00;98.90;;;;;;5108476;28;20518;-72
2022/04/17 09:23:40;;;;;;;13.43;8.73;;;13.00;93.20;;;;;;5091733;28;20044;-71
2022/04/17 09:26:07;;;;;;;13.55;8.77;;;13.10;90.80;;;;;;5091839;28;20035;-75
2022/04/17 09:28:35;;;;;;;15.95;8.65;;;13.20;87.60;;;;;;5074423;28;20047;-71
2022/04/17 09:31:01;;;;;;;14.35;9.00;;;13.30;94.50;;;;;;5074694;28;20036;-71
2022/04/17 09:33:42;;;;;;;15.10;8.32;;;13.40;96.80;;;;;;5073226;28;20040;-73
2022/04/17 09:36:08;;;;;;;15.88;8.90;;;13.50;86.30;;;;;;5091773;28;20092;-71
2022/04/17 09:38:34;;;;;;;14.73;8.50;;;13.50;92.40;;;;;;5091425;28;20499;-72
2022/04/17 09:41:05;;;;;;;11.18;8.05;;;13.60;92.40;;;;;;5090987;28;20369;-71
2022/04/17 09:43:37;;;;;;;12.15;7.93;;;13.70;90.90;;;;;;5088204;28;20051;-72
2022/04/17 09:46:07;;;;;;;13.88;8.57;;;13.70;84.30;;;;;;5091312;28;20075;-72
2022/04/17 09:48:35;;;;;;;16.33;8.23;;;13.80;90.40;;;;;;5090467;28;20117;-72
2022/04/17 09:51:18;;;;;;;13.90;8.77;;;13.90;87.80;;;;;;5074960;28;20112;-71
2022/04/17 09:53:55;;;;;;;16.52;8.38;;;14.00;89.60;;;;;;5090902;28;20032;-72
2022/04/17 09:56:43;;;;;;;13.55;8.32;;;14.00;84.30;;;;;;5091339;28;20086;-74
2022/04/17 09:59:23;;;;;;;13.18;8.43;;;14.10;85.20;;;;;;5091079;28;20067;-73
2022/04/17 10:01:57;;;;;;;13.50;7.60;;;14.20;83.60;;;;;;5091039;28;20157;-72
2022/04/17 10:04:24;;;;;;;13.60;8.50;;;14.30;81.90;;;;;;5089480;28;20028;-71
2022/04/17 10:06:59;;;;;;;12.90;8.27;;;14.40;84.00;;;;;;5090634;28;20082;-71
2022/04/17 10:09:24;;;;;;;14.88;8.10;;;14.50;78.20;;;;;;5090254;28;20556;-70
2022/04/17 10:11:51;;;;;;;14.38;8.45;;;14.50;76.20;;;;;;5090682;28;20040;-70
2022/04/17 10:14:17;;;;;;;12.80;7.90;;;14.50;67.00;;;;;;5090549;28;20168;-72
2022/04/17 10:16:45;;;;;;;18.33;8.38;;;14.50;67.80;;;;;;5090753;28;20040;-71
2022/04/17 10:19:15;;;;;;;13.48;8.07;;;14.60;71.70;;;;;;5093736;28;20046;-72
2022/04/17 10:21:41;;;;;;;13.60;8.05;;;14.70;73.20;;;;;;5088830;28;20059;-71
2022/04/17 10:24:14;;;;;;;13.07;7.88;;;14.80;63.80;;;;;;5089899;28;20538;-71
2022/04/17 10:26:51;;;;;;;13.73;7.97;;;14.80;66.00;;;;;;5086109;28;20505;-71
2022/04/17 10:29:34;;;;;;;11.90;7.25;;;14.90;66.50;;;;;;5073449;28;20032;-70
2022/04/17 10:32:38;;;;;;;12.27;7.03;;;15.00;71.20;;;;;;5089959;28;20417;-71
2022/04/17 10:35:26;;;;;;;12.23;8.50;;;15.10;69.40;;;;;;5089934;28;20043;-72
2022/04/17 10:38:25;;;;;;;11.25;7.47;;;15.20;66.20;;;;;;5072197;28;20044;-72
2022/04/17 10:40:53;;;;;;;14.10;7.93;;;15.20;64.40;;;;;;5086301;28;20043;-72
2022/04/17 10:43:19;;;;;;;11.82;8.27;;;15.30;67.30;;;;;;5088861;28;20226;-71
2022/04/17 10:46:07;;;;;;;11.35;6.90;;;15.40;67.60;;;;;;5087707;28;20089;-71
2022/04/17 10:48:47;;;;;;;11.63;7.38;;;15.50;67.30;;;;;;5072586;28;20367;-71
2022/04/17 10:51:15;;;;;;;11.10;6.90;;;15.60;61.00;;;;;;5089966;28;20044;-71
2022/04/17 10:54:03;;;;;;;14.82;7.60;;;15.60;64.30;;;;;;5088900;28;20071;-70
2022/04/17 10:56:33;;;;;;;12.38;7.72;;;15.70;66.00;;;;;;5090226;28;20044;-71
2022/04/17 10:59:01;;;;;;;10.13;7.07;;;15.80;63.70;;;;;;5088810;28;20047;-71
2022/04/17 11:01:41;;;;;;;10.98;7.22;;;15.90;62.70;;;;;;5088377;28;20040;-72
2022/04/17 11:04:27;;;;;;;12.00;7.47;;;15.90;60.90;;;;;;5089520;28;20040;-75
2022/04/17 11:07:03;;;;;;;10.98;8.07;;;16.00;67.50;;;;;;5079607;28;20044;-70
2022/04/17 11:09:29;;;;;;;12.30;8.88;;;16.10;66.30;;;;;;5089151;28;20116;-72
2022/04/17 11:12:06;;;;;;;13.35;8.18;;;16.20;62.00;;;;;;5079876;28;20048;-71
2022/04/17 11:14:32;;;;;;;13.05;7.72;;;16.20;62.40;;;;;;5072071;28;20055;-70
2022/04/17 11:16:59;;;;;;;13.43;7.68;;;16.20;61.70;;;;;;5092362;28;20071;-68
2022/04/17 11:19:33;;;;;;;15.63;8.35;;;16.20;57.60;;;;;;5087586;28;20036;-71
2022/04/17 11:22:02;;;;;;;13.85;7.90;;;16.10;56.00;;;;;;5088060;28;20410;-71
2022/04/17 11:24:29;;;;;;;11.98;7.32;;;16.00;57.80;;;;;;5077247;28;20124;-71
2022/04/17 11:26:54;;;;;;;11.65;7.55;;;16.00;55.00;;;;;;5069310;28;20056;-72
2022/04/17 11:29:37;;;;;;;11.73;7.75;;;16.10;56.60;;;;;;5068265;28;20052;-72
2022/04/17 11:32:25;;;;;;;13.40;7.13;;;16.10;52.80;;;;;;5068695;28;20048;-73
2022/04/17 11:34:54;;;;;;;12.77;7.78;;;16.20;56.60;;;;;;5069381;28;20063;-72
2022/04/17 11:37:27;;;;;;;11.63;6.72;;;16.20;56.80;;;;;;5070157;28;20048;-70
2022/04/17 11:39:55;;;;;;;13.88;7.53;;;16.20;56.20;;;;;;5077869;28;20058;-72
2022/04/17 11:42:21;;;;;;;10.13;6.53;;;16.20;56.90;;;;;;5087312;28;20491;-71
2022/04/17 11:44:48;;;;;;;8.38;6.40;;;16.20;53.00;;;;;;5088519;28;20054;-72
2022/04/17 11:47:15;;;;;;;13.13;6.63;;;16.30;56.30;;;;;;5088971;28;20057;-71
2022/04/17 11:49:42;;;;;;;10.15;6.40;;;16.40;57.20;;;;;;5088825;28;20414;-70
2022/04/17 11:52:12;;;;;;;12.27;6.93;;;16.60;57.40;;;;;;5089528;28;20040;-71
2022/04/17 11:54:39;;;;;;;9.63;6.78;;;16.70;58.90;;;;;;5090042;28;20561;-72
2022/04/17 11:57:05;;;;;;;10.98;7.05;;;16.80;58.70;;;;;;5080386;28;20068;-73
2022/04/17 11:59:47;;;;;;;11.23;6.65;;;16.90;58.40;;;;;;5068919;28;20036;-73
2022/04/17 12:02:14;;;;;;;9.85;5.78;;;17.00;57.40;;;;;;5075525;28;20111;-73
2022/04/17 12:04:49;;;;;;;10.35;6.50;;;17.00;56.00;;;;;;5072734;28;20518;-69
2022/04/17 12:07:23;;;;;;;10.60;6.57;;;17.10;55.10;;;;;;5090051;28;20478;-71
2022/04/17 12:09:49;;;;;;;11.48;6.10;;;17.20;55.70;;;;;;5088435;28;20036;-71
2022/04/17 12:12:19;;;;;;;9.27;6.05;;;17.30;55.80;;;;;;5087239;28;20047;-72
2022/04/17 12:14:46;;;;;;;9.60;6.00;;;17.40;56.00;;;;;;5089338;28;20047;-71
2022/04/17 12:17:16;;;;;;;8.45;5.93;;;17.40;53.30;;;;;;5090610;28;20410;-75
2022/04/17 12:19:52;;;;;;;8.68;5.88;;;17.40;53.30;;;;;;5088502;28;20043;-73
2022/04/17 12:22:18;;;;;;;7.97;5.90;;;17.40;52.80;;;;;;5088961;28;20039;-72
2022/04/17 12:24:44;;;;;;;9.38;6.00;;;17.30;53.20;;;;;;5088592;28;20153;-73
2022/04/17 12:27:13;;;;;;;8.57;5.60;;;17.40;53.30;;;;;;5070595;28;20040;-72
2022/04/17 12:29:42;;;;;;;9.18;5.70;;;17.40;53.70;;;;;;5084350;28;20044;-70
2022/04/17 12:32:15;;;;;;;11.20;6.35;;;17.50;53.40;;;;;;5089696;28;20036;-72
2022/04/17 12:34:45;;;;;;;10.13;6.68;;;17.60;51.90;;;;;;5088949;28;20048;-73
2022/04/17 12:37:25;;;;;;;10.45;6.65;;;17.70;53.50;;;;;;5089475;28;20040;-72
2022/04/17 12:39:50;;;;;;;10.30;6.55;;;17.70;53.70;;;;;;5088203;28;20043;-74
2022/04/17 12:42:19;;;;;;;13.00;7.25;;;17.80;54.70;;;;;;5089660;28;20043;-70
2022/04/17 12:44:47;;;;;;;9.15;6.53;;;17.90;51.10;;;;;;5089219;28;20036;-75
2022/04/17 12:47:14;;;;;;;10.23;6.97;;;17.90;52.80;;;;;;5072585;28;20376;-72
2022/04/17 12:49:40;;;;;;;10.73;6.95;;;17.90;53.90;;;;;;5089194;28;20043;-71
2022/04/17 12:52:06;;;;;;;11.27;7.22;;;17.80;52.50;;;;;;5089990;28;20032;-74
2022/04/17 12:54:36;;;;;;;10.23;6.85;;;17.80;53.20;;;;;;5088074;28;20033;-73
2022/04/17 12:57:08;;;;;;;11.65;7.07;;;17.80;53.00;;;;;;5071449;28;20051;-72
2022/04/17 12:59:51;;;;;;;12.63;7.47;;;17.80;51.40;;;;;;5085350;28;20172;-73